Time;durP1;ratioP1;P1;durP2;ratioP2;P2;SDS_P1;SDS_P2;PMS_P1;PMS_P2;Temp;Humidity;BMP_temperature;BMP_pressure;BME280_temperature;BME280_humidity;BME280_pressure;Samples;Min_cycle;Max_cycle;Signal;HPM_P1;HPM_P2
2022/10/07 00:01:54;;;;;;;20.42;7.82;;;10.90;99.90;;;;;;5037938;28;20216;-75
2022/10/07 00:04:21;;;;;;;10.38;5.75;;;10.90;99.90;;;;;;5023236;28;20201;-72
2022/10/07 00:06:48;;;;;;;10.57;7.07;;;10.80;99.90;;;;;;5020481;28;20283;-76
2022/10/07 00:09:16;;;;;;;8.35;5.90;;;10.80;99.90;;;;;;5025757;28;20243;-74
2022/10/07 00:11:43;;;;;;;14.95;8.20;;;10.80;99.90;;;;;;5016670;28;20246;-75
2022/10/07 00:14:10;;;;;;;11.50;5.05;;;10.80;99.90;;;;;;5023277;28;20214;-76
2022/10/07 00:16:39;;;;;;;10.60;6.18;;;10.80;99.90;;;;;;5017425;28;20684;-74
2022/10/07 00:19:08;;;;;;;10.48;6.60;;;10.70;99.90;;;;;;5018259;28;20266;-73
2022/10/07 00:21:36;;;;;;;12.43;7.55;;;10.70;99.90;;;;;;5018855;28;20708;-75
2022/10/07 00:24:03;;;;;;;9.23;5.57;;;10.70;99.90;;;;;;5027090;28;20198;-76
2022/10/07 00:26:34;;;;;;;12.00;6.75;;;10.70;99.90;;;;;;5024778;28;20243;-74
2022/10/07 00:29:01;;;;;;;10.45;5.90;;;10.70;99.90;;;;;;5010708;28;20279;-74
2022/10/07 00:31:30;;;;;;;14.45;5.90;;;10.70;99.90;;;;;;5029082;28;20204;-74
2022/10/07 00:33:58;;;;;;;18.00;7.45;;;10.70;99.90;;;;;;5027169;28;20258;-77
2022/10/07 00:36:27;;;;;;;14.10;5.95;;;10.60;99.90;;;;;;5026695;28;20569;-75
2022/10/07 00:38:56;;;;;;;14.23;6.43;;;10.60;99.90;;;;;;5020432;28;20257;-76
2022/10/07 00:41:25;;;;;;;10.07;6.25;;;10.60;99.90;;;;;;5017739;28;20214;-74
2022/10/07 00:43:54;;;;;;;7.60;5.18;;;10.60;99.90;;;;;;5023194;28;20198;-75
2022/10/07 00:46:29;;;;;;;12.45;5.95;;;10.60;99.90;;;;;;5013459;28;20202;-75
2022/10/07 00:48:57;;;;;;;16.40;7.57;;;10.60;99.90;;;;;;5022120;28;20314;-75
2022/10/07 00:51:24;;;;;;;9.30;5.32;;;10.50;99.90;;;;;;5029992;28;20210;-75
2022/10/07 00:53:53;;;;;;;12.75;6.18;;;10.40;99.90;;;;;;5029722;28;20209;-73
2022/10/07 00:56:23;;;;;;;9.13;5.35;;;10.40;99.90;;;;;;5018685;28;20202;-76
2022/10/07 00:58:51;;;;;;;8.75;5.93;;;10.40;99.90;;;;;;5012636;28;20246;-77
2022/10/07 01:01:21;;;;;;;8.82;6.00;;;10.40;99.90;;;;;;5021493;28;20204;-74
2022/10/07 01:03:49;;;;;;;9.48;6.30;;;10.30;99.90;;;;;;5017832;28;20729;-75
2022/10/07 01:06:16;;;;;;;9.68;5.53;;;10.30;99.90;;;;;;5030311;28;20241;-74
2022/10/07 01:08:45;;;;;;;16.00;5.55;;;10.30;99.90;;;;;;5019720;28;20231;-74
2022/10/07 01:11:23;;;;;;;11.85;6.70;;;10.20;99.90;;;;;;5014249;28;20202;-75
2022/10/07 01:14:03;;;;;;;12.38;5.45;;;10.20;99.90;;;;;;5021586;28;20675;-71
2022/10/07 01:16:39;;;;;;;13.18;5.45;;;10.20;99.90;;;;;;5020596;28;20642;-73
2022/10/07 01:19:22;;;;;;;13.18;5.75;;;10.20;99.90;;;;;;5005561;28;20309;-75
2022/10/07 01:22:01;;;;;;;8.55;4.47;;;10.10;99.90;;;;;;5013657;28;20225;-74
2022/10/07 01:24:40;;;;;;;11.07;4.57;;;10.20;99.90;;;;;;5024609;28;20625;-76
2022/10/07 01:27:12;;;;;;;9.00;5.00;;;10.10;99.90;;;;;;5019507;28;20687;-72
2022/10/07 01:29:42;;;;;;;7.55;4.28;;;10.10;99.90;;;;;;5007419;28;20225;-75
2022/10/07 01:32:13;;;;;;;12.88;4.05;;;10.00;99.90;;;;;;5017557;28;20287;-75
2022/10/07 01:34:42;;;;;;;12.40;4.28;;;10.10;99.90;;;;;;5027278;28;20266;-75
2022/10/07 01:37:13;;;;;;;5.75;3.60;;;10.10;99.90;;;;;;5010475;28;20226;-73
2022/10/07 01:39:45;;;;;;;9.32;3.92;;;10.10;99.90;;;;;;5020518;28;20213;-73
2022/10/07 01:42:14;;;;;;;8.73;4.03;;;10.20;99.90;;;;;;5024091;28;20222;-74
2022/10/07 01:44:44;;;;;;;6.93;3.85;;;10.10;99.90;;;;;;5033978;28;20231;-73
2022/10/07 01:47:10;;;;;;;7.68;3.40;;;10.10;99.90;;;;;;5040016;28;20220;-74
2022/10/07 01:49:38;;;;;;;7.97;3.60;;;10.30;99.90;;;;;;5025853;28;20207;-76
2022/10/07 01:52:25;;;;;;;9.75;3.30;;;10.20;99.90;;;;;;5011243;28;20288;-79
2022/10/07 01:55:12;;;;;;;8.35;3.80;;;10.30;99.90;;;;;;5010248;28;20222;-75
2022/10/07 01:57:51;;;;;;;20.70;4.90;;;10.20;99.90;;;;;;5011386;28;20227;-73
2022/10/07 02:00:18;;;;;;;8.52;3.50;;;10.20;99.90;;;;;;5017306;28;20390;-74
2022/10/07 02:02:59;;;;;;;7.85;4.07;;;10.10;99.90;;;;;;5016720;28;20257;-73
2022/10/07 02:05:34;;;;;;;8.32;4.00;;;10.10;99.90;;;;;;5016056;28;20660;-74
2022/10/07 02:08:17;;;;;;;12.07;4.00;;;10.10;99.90;;;;;;5009117;28;20733;-74
2022/10/07 02:11:01;;;;;;;6.10;3.30;;;10.10;99.90;;;;;;5010488;28;20776;-75
2022/10/07 02:13:35;;;;;;;10.82;3.35;;;10.10;99.90;;;;;;4999164;28;20230;-74
2022/10/07 02:16:15;;;;;;;17.23;3.72;;;10.10;99.90;;;;;;5013267;28;20202;-75
2022/10/07 02:18:47;;;;;;;6.72;2.78;;;10.10;99.90;;;;;;5006458;28;20237;-73
2022/10/07 02:21:16;;;;;;;8.25;2.50;;;10.10;99.90;;;;;;5011288;28;20258;-76
2022/10/07 02:23:46;;;;;;;8.38;2.80;;;10.00;99.90;;;;;;5023546;28;20546;-74
2022/10/07 02:26:17;;;;;;;9.05;2.95;;;10.00;99.90;;;;;;5013643;28;20359;-76
2022/10/07 02:28:49;;;;;;;6.80;3.53;;;9.90;99.90;;;;;;5019452;28;20251;-76
2022/10/07 02:31:18;;;;;;;13.35;3.40;;;9.80;99.90;;;;;;5017920;28;20292;-75
2022/10/07 02:33:47;;;;;;;10.32;3.30;;;9.80;99.90;;;;;;5028575;28;20718;-74
2022/10/07 02:36:18;;;;;;;11.30;2.85;;;9.80;99.90;;;;;;5024781;28;20597;-75
2022/10/07 02:38:45;;;;;;;5.20;2.60;;;9.80;99.90;;;;;;5013882;28;20222;-74
2022/10/07 02:41:30;;;;;;;6.35;2.97;;;9.80;99.90;;;;;;5017196;28;20284;-74
2022/10/07 02:44:05;;;;;;;6.38;3.10;;;9.80;99.90;;;;;;5019245;28;20208;-75
2022/10/07 02:46:37;;;;;;;4.18;2.40;;;9.70;99.90;;;;;;5009163;28;20209;-74
2022/10/07 02:49:08;;;;;;;7.90;3.78;;;9.70;99.90;;;;;;5019993;28;20287;-75
2022/10/07 02:51:42;;;;;;;7.25;3.25;;;9.70;99.90;;;;;;5008110;28;20638;-76
2022/10/07 02:54:09;;;;;;;11.82;3.10;;;9.80;99.90;;;;;;5004233;28;20212;-73
2022/10/07 02:56:39;;;;;;;15.25;4.80;;;9.70;99.90;;;;;;5014548;28;20552;-73
2022/10/07 02:59:10;;;;;;;6.32;2.95;;;9.60;99.90;;;;;;5006651;28;20658;-76
2022/10/07 03:01:41;;;;;;;8.40;3.10;;;9.60;99.90;;;;;;5011192;28;20688;-73
2022/10/07 03:04:08;;;;;;;9.82;3.72;;;9.50;99.90;;;;;;5008066;28;20209;-74
2022/10/07 03:06:36;;;;;;;4.68;3.20;;;9.50;99.90;;;;;;5022687;28;20295;-74
2022/10/07 03:09:03;;;;;;;14.82;4.10;;;9.50;99.90;;;;;;5017916;28;20719;-75
2022/10/07 03:11:30;;;;;;;8.45;3.38;;;9.40;99.90;;;;;;5002840;28;20240;-75
2022/10/07 03:13:57;;;;;;;8.27;3.20;;;9.40;99.90;;;;;;5010431;28;20313;-75
2022/10/07 03:16:26;;;;;;;7.85;3.30;;;9.40;99.90;;;;;;5013647;28;20205;-75
2022/10/07 03:18:53;;;;;;;7.55;3.70;;;9.40;99.90;;;;;;5006776;28;20225;-76
2022/10/07 03:21:20;;;;;;;9.77;3.90;;;9.40;99.90;;;;;;5016350;28;20196;-75
2022/10/07 03:23:52;;;;;;;6.65;3.53;;;9.30;99.90;;;;;;5011901;28;20279;-75
2022/10/07 03:26:19;;;;;;;12.70;4.35;;;9.30;99.90;;;;;;5017730;28;20566;-75
2022/10/07 03:28:46;;;;;;;10.82;4.60;;;9.30;99.90;;;;;;5016470;28;20243;-76
2022/10/07 03:31:14;;;;;;;7.35;4.22;;;9.30;99.90;;;;;;5024057;28;20204;-76
2022/10/07 03:33:43;;;;;;;8.68;3.67;;;9.30;99.90;;;;;;5027865;28;20308;-76
2022/10/07 03:36:11;;;;;;;4.57;3.50;;;9.30;99.90;;;;;;5020268;28;20734;-74
2022/10/07 03:38:37;;;;;;;10.55;4.40;;;9.30;99.90;;;;;;5016089;28;20235;-74
2022/10/07 03:41:05;;;;;;;11.80;4.00;;;9.30;99.90;;;;;;5019231;28;20207;-73
2022/10/07 03:43:32;;;;;;;11.10;3.63;;;9.20;99.90;;;;;;5013703;28;20229;-74
2022/10/07 03:46:01;;;;;;;9.50;3.80;;;9.10;99.90;;;;;;5021988;28;20282;-73
2022/10/07 03:48:28;;;;;;;9.55;3.75;;;9.10;99.90;;;;;;5014803;28;20225;-74
2022/10/07 03:50:58;;;;;;;9.15;3.17;;;9.00;99.90;;;;;;5020446;28;20205;-74
2022/10/07 03:53:25;;;;;;;8.77;4.18;;;9.00;99.90;;;;;;5024176;28;20209;-73
2022/10/07 03:55:52;;;;;;;7.95;4.15;;;9.10;99.90;;;;;;5028318;28;20196;-72
2022/10/07 03:58:19;;;;;;;4.65;3.58;;;9.10;99.90;;;;;;5028397;28;20312;-72
2022/10/07 04:00:46;;;;;;;7.22;3.70;;;9.10;99.90;;;;;;5027860;28;20303;-72
2022/10/07 04:03:14;;;;;;;7.47;3.78;;;9.10;99.90;;;;;;5018540;28;20212;-75
2022/10/07 04:05:41;;;;;;;7.35;4.00;;;9.00;99.90;;;;;;5024429;28;20296;-75
2022/10/07 04:08:12;;;;;;;7.63;4.45;;;9.00;99.90;;;;;;5019714;28;20228;-75
2022/10/07 04:10:40;;;;;;;12.13;3.47;;;9.00;99.90;;;;;;5016112;28;20659;-75
2022/10/07 04:13:07;;;;;;;7.97;4.00;;;9.00;99.90;;;;;;5013725;28;20285;-73
2022/10/07 04:15:35;;;;;;;9.98;3.58;;;9.00;99.90;;;;;;5011783;28;20287;-75
2022/10/07 04:18:02;;;;;;;10.27;3.78;;;9.00;99.90;;;;;;5024069;28;20334;-75
2022/10/07 04:20:30;;;;;;;10.30;3.90;;;8.90;99.90;;;;;;5028717;28;20268;-76
2022/10/07 04:22:57;;;;;;;9.98;4.55;;;8.90;99.90;;;;;;5036959;28;20235;-75
2022/10/07 04:28:08;;;;;;;8.55;3.92;;;9.00;99.90;;;;;;5027420;28;20334;-75
2022/10/07 04:30:42;;;;;;;13.68;4.75;;;9.00;99.90;;;;;;5019812;28;20659;-75
2022/10/07 04:33:10;;;;;;;12.05;4.47;;;9.00;99.90;;;;;;5008880;28;20205;-74
2022/10/07 04:35:38;;;;;;;7.38;4.93;;;9.00;99.90;;;;;;5025769;28;20223;-75
2022/10/07 04:38:09;;;;;;;7.90;4.43;;;9.00;99.90;;;;;;5020484;28;20303;-73
2022/10/07 04:40:43;;;;;;;8.63;4.05;;;9.00;99.90;;;;;;5029378;28;20211;-74
2022/10/07 04:43:23;;;;;;;7.55;4.22;;;9.00;99.90;;;;;;5022846;28;20204;-74
2022/10/07 04:45:53;;;;;;;6.68;3.75;;;9.00;99.90;;;;;;5001629;28;20722;-73
2022/10/07 04:48:21;;;;;;;5.93;3.80;;;9.00;99.90;;;;;;5003782;28;20229;-76
2022/10/07 04:50:50;;;;;;;12.45;4.60;;;9.10;99.90;;;;;;5020906;28;20311;-76
2022/10/07 04:53:18;;;;;;;6.35;4.15;;;9.10;99.90;;;;;;5028820;28;20230;-75
2022/10/07 04:55:50;;;;;;;11.75;4.82;;;9.20;99.90;;;;;;5027306;28;20217;-73
2022/10/07 04:58:18;;;;;;;13.20;5.13;;;9.10;99.90;;;;;;5017242;28;20256;-74
2022/10/07 05:00:47;;;;;;;19.33;5.32;;;9.20;99.90;;;;;;5022291;28;20258;-74
2022/10/07 05:03:15;;;;;;;6.35;4.22;;;9.20;99.90;;;;;;5009920;28;20201;-74
2022/10/07 05:05:44;;;;;;;9.13;4.88;;;9.20;99.90;;;;;;5016566;28;20652;-73
2022/10/07 05:08:11;;;;;;;14.43;4.05;;;9.20;99.90;;;;;;5017187;28;20232;-74
2022/10/07 05:10:39;;;;;;;13.05;4.93;;;9.40;99.90;;;;;;5013711;28;20228;-75
2022/10/07 05:13:08;;;;;;;8.02;5.97;;;9.30;99.90;;;;;;5012834;28;20660;-76
2022/10/07 05:15:35;;;;;;;7.05;5.07;;;9.20;99.90;;;;;;5032095;28;20229;-76
2022/10/07 05:18:04;;;;;;;9.82;4.53;;;9.20;99.90;;;;;;5019739;28;20264;-76
2022/10/07 05:20:32;;;;;;;12.60;6.00;;;9.20;99.90;;;;;;5006884;28;20196;-75
2022/10/07 05:22:58;;;;;;;11.65;5.15;;;9.20;99.90;;;;;;5015874;28;20204;-73
2022/10/07 05:25:25;;;;;;;11.18;6.10;;;9.20;99.90;;;;;;5007359;28;20197;-74
2022/10/07 05:27:53;;;;;;;15.50;6.60;;;9.30;99.90;;;;;;5023753;28;20597;-74
2022/10/07 05:30:22;;;;;;;10.23;5.20;;;9.10;99.90;;;;;;5019534;28;20295;-74
2022/10/07 05:32:50;;;;;;;12.43;4.65;;;9.00;99.90;;;;;;5013157;28;20841;-74
2022/10/07 05:35:17;;;;;;;10.20;4.75;;;9.10;99.90;;;;;;5014623;28;20208;-75
2022/10/07 05:37:46;;;;;;;16.08;7.18;;;9.10;99.90;;;;;;5003217;28;20298;-74
2022/10/07 05:40:13;;;;;;;12.60;5.85;;;9.00;99.90;;;;;;5016296;28;20727;-75
2022/10/07 05:42:40;;;;;;;14.98;5.97;;;9.00;99.90;;;;;;5022150;28;20199;-77
2022/10/07 05:45:08;;;;;;;20.70;7.88;;;9.20;99.90;;;;;;5015766;28;20219;-73
2022/10/07 05:47:36;;;;;;;11.20;5.32;;;9.10;99.90;;;;;;5020087;28;20264;-78
2022/10/07 05:50:05;;;;;;;13.00;6.35;;;9.10;99.90;;;;;;5020467;28;20196;-76
2022/10/07 05:52:39;;;;;;;16.83;6.85;;;9.10;99.90;;;;;;5012921;28;20201;-74
2022/10/07 05:55:07;;;;;;;13.43;6.38;;;9.20;99.90;;;;;;5013420;28;20222;-73
2022/10/07 05:57:34;;;;;;;8.52;5.00;;;9.20;99.90;;;;;;5026756;28;20348;-73
2022/10/07 06:00:03;;;;;;;13.98;5.50;;;9.30;99.90;;;;;;5020811;28;20210;-77
2022/10/07 06:02:29;;;;;;;11.25;6.05;;;9.30;99.90;;;;;;5007552;28;20205;-73
2022/10/07 06:04:58;;;;;;;15.00;5.40;;;9.40;99.90;;;;;;5015087;28;20291;-74
2022/10/07 06:07:25;;;;;;;11.20;5.28;;;9.50;99.90;;;;;;5005503;28;20247;-75
2022/10/07 06:15:24;;;;;;;8.75;5.03;;;9.60;99.90;;;;;;5011256;28;20224;-75
2022/10/07 06:17:51;;;;;;;15.50;6.95;;;9.60;99.90;;;;;;5002095;28;20223;-76
2022/10/07 06:20:19;;;;;;;8.32;5.07;;;9.80;99.90;;;;;;5006003;28;20213;-75
2022/10/07 06:22:46;;;;;;;14.85;6.20;;;9.70;99.90;;;;;;5022004;28;20566;-76
2022/10/07 06:25:14;;;;;;;13.68;6.25;;;9.80;99.90;;;;;;5023035;28;20205;-75
2022/10/07 06:27:41;;;;;;;17.05;5.22;;;9.90;99.90;;;;;;5017420;28;20235;-75
2022/10/07 06:30:10;;;;;;;12.88;5.20;;;10.00;99.90;;;;;;5024557;28;20284;-74
2022/10/07 06:32:37;;;;;;;10.43;4.38;;;10.20;99.90;;;;;;5029444;28;20205;-74
2022/10/07 06:35:04;;;;;;;12.13;4.40;;;10.30;99.90;;;;;;5030286;28;20215;-74
2022/10/07 06:37:33;;;;;;;8.73;3.92;;;10.70;99.90;;;;;;5029270;28;20223;-74
2022/10/07 06:40:02;;;;;;;8.23;4.18;;;11.20;99.90;;;;;;5028895;28;20223;-72
2022/10/07 06:42:28;;;;;;;7.05;3.80;;;11.50;99.90;;;;;;5024417;28;20260;-72
2022/10/07 06:44:55;;;;;;;9.70;3.38;;;11.90;99.90;;;;;;5038872;28;20193;-72
2022/10/07 06:47:23;;;;;;;11.20;5.25;;;12.80;99.90;;;;;;5019953;28;20233;-72
2022/10/07 06:49:50;;;;;;;14.73;4.38;;;13.50;99.90;;;;;;5025360;28;20211;-72
2022/10/07 06:52:17;;;;;;;14.15;3.90;;;14.00;99.90;;;;;;5027382;28;20243;-71
2022/10/07 06:54:45;;;;;;;14.32;4.50;;;14.10;99.90;;;;;;5024186;28;20295;-73
2022/10/07 06:57:12;;;;;;;8.15;3.83;;;13.80;99.90;;;;;;5025878;28;20307;-76
2022/10/07 06:59:40;;;;;;;12.38;4.13;;;13.70;99.90;;;;;;5024624;28;20260;-75
2022/10/07 07:02:07;;;;;;;9.65;3.58;;;13.50;99.90;;;;;;5024720;28;20216;-77
2022/10/07 07:04:34;;;;;;;10.82;3.90;;;13.40;99.90;;;;;;5022332;28;20284;-73
2022/10/07 07:07:02;;;;;;;12.52;4.68;;;13.40;99.90;;;;;;5008308;28;20236;-75
2022/10/07 07:09:31;;;;;;;10.52;4.50;;;13.20;99.90;;;;;;5011689;28;20208;-76
2022/10/07 07:11:59;;;;;;;12.20;3.60;;;13.70;99.90;;;;;;5014748;28;20292;-75
2022/10/07 07:14:27;;;;;;;13.60;4.60;;;14.60;99.90;;;;;;5020828;28;20213;-73
2022/10/07 07:16:54;;;;;;;6.83;3.63;;;15.40;99.90;;;;;;5024760;28;20210;-72
2022/10/07 07:19:21;;;;;;;12.23;4.90;;;16.30;99.90;;;;;;5021402;28;20555;-73
2022/10/07 07:21:48;;;;;;;6.03;3.23;;;17.30;99.90;;;;;;5009623;28;20440;-75
2022/10/07 07:24:15;;;;;;;13.17;3.43;;;18.20;98.60;;;;;;5015827;28;20538;-75
2022/10/07 07:26:42;;;;;;;9.00;3.60;;;18.90;96.30;;;;;;5010318;28;20531;-76
2022/10/07 07:29:12;;;;;;;5.13;3.10;;;19.90;93.90;;;;;;5020242;28;20462;-74
2022/10/07 07:31:39;;;;;;;8.17;2.93;;;20.40;92.50;;;;;;5014346;28;20503;-76
2022/10/07 07:34:10;;;;;;;13.97;3.90;;;21.10;91.10;;;;;;5012574;28;20908;-73
2022/10/07 07:36:40;;;;;;;7.93;3.57;;;21.20;90.40;;;;;;5006993;28;20484;-75
2022/10/07 07:39:09;;;;;;;8.93;3.60;;;21.30;90.30;;;;;;5015116;28;20469;-75
2022/10/07 07:41:40;;;;;;;6.83;3.77;;;21.60;89.00;;;;;;5018839;28;20962;-77
2022/10/07 07:44:11;;;;;;;9.97;3.10;;;22.10;87.90;;;;;;5007092;28;20448;-75
2022/10/07 07:46:41;;;;;;;9.33;3.63;;;22.60;85.90;;;;;;5023418;28;20534;-75
2022/10/07 07:49:10;;;;;;;7.07;3.20;;;22.60;84.20;;;;;;5014163;28;20472;-76
2022/10/07 07:51:41;;;;;;;11.13;4.00;;;22.20;84.80;;;;;;5024676;28;20454;-75
2022/10/07 07:54:08;;;;;;;8.43;3.43;;;22.30;85.00;;;;;;5007867;28;20492;-75
2022/10/07 07:56:35;;;;;;;11.90;3.40;;;22.00;86.30;;;;;;5008020;28;20516;-75
2022/10/07 07:59:02;;;;;;;9.93;3.40;;;22.20;85.90;;;;;;5021340;28;20479;-75
2022/10/07 08:01:34;;;;;;;7.70;3.37;;;22.20;84.30;;;;;;5012442;28;21018;-74
2022/10/07 08:04:01;;;;;;;8.50;3.23;;;22.60;84.00;;;;;;5023496;28;20523;-74
2022/10/07 08:06:30;;;;;;;11.70;3.70;;;22.20;84.20;;;;;;5014751;28;20551;-77
2022/10/07 08:08:58;;;;;;;11.40;3.60;;;22.20;85.00;;;;;;5007370;28;20554;-76
2022/10/07 08:11:25;;;;;;;11.37;3.60;;;22.20;85.70;;;;;;5023234;28;20465;-75
2022/10/07 08:13:54;;;;;;;11.40;3.40;;;22.60;84.60;;;;;;5015951;28;20485;-77
2022/10/07 08:16:22;;;;;;;12.30;3.43;;;23.30;84.00;;;;;;5020462;28;20484;-73
2022/10/07 08:18:54;;;;;;;8.40;4.03;;;23.30;82.20;;;;;;5016751;28;20871;-75
2022/10/07 08:21:22;;;;;;;7.67;2.70;;;23.50;82.00;;;;;;5007051;28;20960;-75
2022/10/07 08:23:53;;;;;;;7.60;3.20;;;22.90;81.30;;;;;;5020507;28;20446;-74
2022/10/07 08:26:21;;;;;;;10.10;3.97;;;22.90;82.70;;;;;;5012229;28;20459;-77
2022/10/07 08:28:48;;;;;;;10.03;4.00;;;22.90;83.30;;;;;;5014305;28;21065;-74
2022/10/07 08:31:16;;;;;;;9.73;4.20;;;23.10;83.10;;;;;;5027831;28;20450;-75
2022/10/07 08:33:46;;;;;;;13.80;3.53;;;23.90;82.40;;;;;;5031494;28;20469;-75
2022/10/07 08:36:17;;;;;;;6.43;3.20;;;24.10;80.30;;;;;;5020838;28;20505;-73
2022/10/07 08:38:46;;;;;;;7.77;3.33;;;23.20;79.90;;;;;;5007400;28;20520;-75
2022/10/07 08:41:21;;;;;;;11.33;3.10;;;22.90;81.70;;;;;;5025064;28;20793;-77
2022/10/07 08:43:49;;;;;;;9.37;2.83;;;23.40;81.70;;;;;;5003755;28;20446;-74
2022/10/07 08:46:19;;;;;;;7.33;3.10;;;23.50;80.80;;;;;;5029258;28;20450;-76
2022/10/07 08:48:52;;;;;;;10.90;3.17;;;23.80;80.40;;;;;;5038063;28;20467;-75
2022/10/07 08:51:25;;;;;;;9.60;3.17;;;24.20;79.80;;;;;;5026280;28;20451;-76
2022/10/07 08:53:58;;;;;;;6.50;3.40;;;24.50;79.40;;;;;;5019066;28;20444;-75
2022/10/07 08:56:26;;;;;;;9.10;3.13;;;23.90;78.10;;;;;;5011576;28;20490;-75
2022/10/07 08:59:13;;;;;;;11.97;2.90;;;23.60;79.60;;;;;;5029144;28;20505;-77
2022/10/07 09:01:54;;;;;;;6.83;2.40;;;24.50;79.20;;;;;;5025840;28;20518;-77
2022/10/07 09:04:34;;;;;;;6.13;2.77;;;24.50;78.60;;;;;;5022522;28;20483;-78
2022/10/07 09:07:08;;;;;;;8.53;2.40;;;23.60;78.50;;;;;;5016654;28;20443;-74
2022/10/07 09:09:41;;;;;;;13.70;3.33;;;23.50;79.90;;;;;;5022269;28;20498;-76
2022/10/07 09:12:13;;;;;;;9.67;2.90;;;23.60;81.20;;;;;;5034278;28;20838;-74
2022/10/07 09:14:43;;;;;;;14.17;2.90;;;23.50;81.20;;;;;;5030829;28;20504;-76
2022/10/07 09:17:15;;;;;;;11.73;3.43;;;23.70;82.00;;;;;;5028475;28;20491;-72
2022/10/07 09:19:44;;;;;;;10.80;3.00;;;23.90;81.30;;;;;;5039355;28;20462;-72
2022/10/07 09:22:20;;;;;;;5.70;2.30;;;24.10;80.50;;;;;;5029935;28;20534;-74
2022/10/07 09:24:48;;;;;;;9.20;3.23;;;24.00;81.10;;;;;;5028457;28;20525;-72
2022/10/07 09:27:18;;;;;;;14.93;6.00;;;24.20;80.40;;;;;;5034409;28;20483;-74
2022/10/07 09:29:45;;;;;;;9.87;2.47;;;23.30;80.60;;;;;;5039352;28;20446;-73
2022/10/07 09:32:13;;;;;;;8.03;2.40;;;23.30;82.30;;;;;;5035809;28;20470;-74
2022/10/07 09:34:41;;;;;;;11.23;3.13;;;23.00;82.00;;;;;;5037045;28;20447;-73
2022/10/07 09:37:20;;;;;;;9.87;3.63;;;22.80;81.90;;;;;;5020339;28;20491;-77
2022/10/07 09:39:50;;;;;;;6.60;2.73;;;22.80;82.20;;;;;;5030807;28;20510;-77
2022/10/07 09:42:28;;;;;;;10.43;3.40;;;23.20;83.20;;;;;;5015692;28;20475;-76
2022/10/07 09:44:57;;;;;;;8.77;2.70;;;23.50;83.00;;;;;;5019817;28;20457;-77
2022/10/07 09:47:27;;;;;;;9.20;3.10;;;23.30;82.90;;;;;;5012713;28;20551;-76
2022/10/07 09:49:58;;;;;;;9.47;3.53;;;22.30;82.90;;;;;;5028141;28;20807;-74
2022/10/07 09:52:28;;;;;;;9.43;3.23;;;22.60;85.50;;;;;;5018319;28;20441;-76
2022/10/07 09:54:57;;;;;;;9.57;4.00;;;22.50;84.00;;;;;;5028646;28;20455;-76
2022/10/07 09:57:32;;;;;;;8.70;2.70;;;22.00;85.20;;;;;;5020371;28;20504;-76
2022/10/07 10:00:24;;;;;;;6.10;2.90;;;21.80;85.70;;;;;;5013888;28;20493;-77
2022/10/07 10:02:54;;;;;;;10.93;2.80;;;21.30;85.90;;;;;;5018407;28;20974;-79
2022/10/07 10:05:27;;;;;;;12.73;3.07;;;21.50;87.90;;;;;;5021229;28;20524;-76
2022/10/07 10:07:58;;;;;;;12.67;5.07;;;21.50;87.30;;;;;;5020730;28;20474;-75
2022/10/07 10:10:27;;;;;;;9.80;3.63;;;21.60;87.70;;;;;;5018519;28;20892;-78
2022/10/07 10:12:56;;;;;;;9.00;3.00;;;21.40;87.10;;;;;;5022817;28;20527;-74
2022/10/07 10:15:38;;;;;;;17.77;4.07;;;21.40;88.60;;;;;;5015023;28;20876;-78
2022/10/07 10:18:40;;;;;;;5.63;2.30;;;21.60;87.60;;;;;;5021890;28;20853;-75
2022/10/07 10:21:28;;;;;;;9.27;2.80;;;21.00;87.50;;;;;;5013253;28;20539;-75
2022/10/07 10:23:58;;;;;;;8.73;2.30;;;20.80;88.90;;;;;;5014402;28;20451;-75
2022/10/07 10:26:52;;;;;;;14.20;3.90;;;20.50;90.00;;;;;;5020728;28;20450;-73
2022/10/07 10:29:38;;;;;;;13.90;3.70;;;20.60;89.60;;;;;;5029305;28;20815;-78
2022/10/07 10:32:30;;;;;;;15.80;4.03;;;20.50;90.30;;;;;;5025222;28;20941;-76
2022/10/07 10:35:04;;;;;;;11.97;2.90;;;20.10;90.10;;;;;;5043698;28;20445;-75
2022/10/07 10:37:57;;;;;;;8.77;2.87;;;19.50;91.20;;;;;;5031336;28;20554;-74
2022/10/07 10:40:32;;;;;;;15.23;5.20;;;19.30;92.00;;;;;;5024202;28;20822;-74
2022/10/07 10:43:21;;;;;;;11.93;3.60;;;19.40;92.70;;;;;;5021756;28;20522;-77
2022/10/07 10:46:05;;;;;;;18.33;5.00;;;19.60;92.40;;;;;;5010401;28;20499;-75
2022/10/07 10:48:40;;;;;;;14.10;3.63;;;19.40;92.20;;;;;;5023505;28;20459;-75
2022/10/07 10:51:20;;;;;;;6.20;2.93;;;19.30;92.60;;;;;;4999710;28;20491;-76
2022/10/07 10:54:04;;;;;;;14.53;3.90;;;19.40;93.20;;;;;;5024136;28;20944;-76
2022/10/07 10:56:37;;;;;;;8.90;2.60;;;19.30;93.60;;;;;;5012662;28;20488;-76
2022/10/07 10:59:16;;;;;;;10.77;3.10;;;19.20;92.90;;;;;;5022064;28;20627;-74
2022/10/07 11:01:45;;;;;;;12.30;3.67;;;19.30;93.60;;;;;;5012726;28;22078;-75
2022/10/07 11:04:22;;;;;;;8.77;2.93;;;19.30;93.20;;;;;;4997481;28;20545;-76
2022/10/07 11:06:54;;;;;;;11.57;4.07;;;19.00;93.50;;;;;;5002391;28;20456;-74
2022/10/07 11:09:31;;;;;;;13.40;3.80;;;19.10;94.10;;;;;;5010757;28;20457;-77
2022/10/07 11:12:05;;;;;;;10.70;2.97;;;18.90;94.20;;;;;;5013197;28;20458;-74
2022/10/07 11:14:36;;;;;;;8.60;3.03;;;19.20;94.70;;;;;;5015351;28;20521;-76
2022/10/07 11:17:06;;;;;;;9.73;3.00;;;19.20;94.00;;;;;;5015870;28;20674;-73
2022/10/07 11:19:36;;;;;;;11.67;3.70;;;19.20;93.80;;;;;;4998855;28;20459;-74
2022/10/07 11:22:14;;;;;;;8.37;2.63;;;19.10;92.90;;;;;;5002601;28;20535;-76
2022/10/07 11:24:49;;;;;;;9.43;2.57;;;19.10;92.80;;;;;;5021469;28;20550;-75
2022/10/07 11:27:24;;;;;;;6.00;2.50;;;18.80;93.20;;;;;;5018665;28;20467;-77
2022/10/07 11:29:58;;;;;;;6.53;2.30;;;18.80;93.50;;;;;;5015541;28;20459;-76
2022/10/07 11:32:30;;;;;;;11.17;2.57;;;18.80;93.60;;;;;;5019359;28;20437;-75
2022/10/07 11:35:06;;;;;;;10.20;2.70;;;18.80;93.40;;;;;;5023905;28;20459;-74
2022/10/07 11:37:38;;;;;;;8.70;3.30;;;18.90;93.40;;;;;;5019942;28;20506;-76
2022/10/07 11:40:06;;;;;;;16.00;3.27;;;18.90;93.60;;;;;;5016622;28;20467;-76
2022/10/07 11:42:41;;;;;;;6.50;2.20;;;18.70;93.70;;;;;;5018699;28;20460;-74
2022/10/07 11:45:15;;;;;;;7.47;2.20;;;18.80;93.60;;;;;;5012954;28;20457;-74
2022/10/07 11:47:46;;;;;;;8.07;1.87;;;18.80;92.90;;;;;;5008971;28;20487;-77
2022/10/07 11:50:18;;;;;;;11.10;2.73;;;18.90;92.90;;;;;;5022131;28;20551;-77
2022/10/07 11:52:48;;;;;;;16.23;2.40;;;18.90;93.10;;;;;;5009437;28;20515;-77
2022/10/07 11:55:21;;;;;;;9.80;3.43;;;18.80;93.00;;;;;;5019879;28;20481;-75
2022/10/07 11:57:54;;;;;;;4.97;2.00;;;18.90;93.30;;;;;;5013340;28;20831;-76
2022/10/07 12:00:27;;;;;;;9.70;2.97;;;18.80;93.20;;;;;;5022190;28;20526;-76
2022/10/07 12:02:55;;;;;;;8.10;2.43;;;18.80;93.30;;;;;;5013464;28;20536;-76
2022/10/07 12:05:55;;;;;;;7.17;2.90;;;18.80;93.40;;;;;;5016329;28;20458;-78
2022/10/07 12:08:29;;;;;;;5.57;1.60;;;18.90;93.50;;;;;;4995307;28;20552;-76
2022/10/07 12:11:16;;;;;;;15.50;3.33;;;18.80;93.90;;;;;;5006899;28;20551;-76
2022/10/07 12:13:47;;;;;;;13.70;3.33;;;18.80;93.80;;;;;;5024333;28;20820;-77
2022/10/07 12:16:52;;;;;;;21.17;3.70;;;19.00;94.00;;;;;;5020973;28;20502;-76
2022/10/07 12:19:21;;;;;;;18.83;4.60;;;19.10;94.10;;;;;;5020252;28;20442;-77
2022/10/07 12:22:16;;;;;;;6.00;2.20;;;18.90;93.80;;;;;;5012405;28;20458;-76
2022/10/07 12:24:45;;;;;;;9.67;2.43;;;18.80;94.00;;;;;;5011670;28;20982;-75
2022/10/07 12:27:16;;;;;;;13.97;2.30;;;18.80;94.20;;;;;;5031680;28;20552;-77
2022/10/07 12:30:02;;;;;;;8.60;2.90;;;18.90;94.60;;;;;;5035522;28;20448;-77
2022/10/07 12:32:46;;;;;;;10.47;2.40;;;19.00;94.50;;;;;;5022371;28;20469;-77
2022/10/07 12:35:46;;;;;;;8.00;2.53;;;18.80;94.00;;;;;;5026603;28;20459;-78
2022/10/07 12:38:15;;;;;;;10.10;2.43;;;18.80;94.70;;;;;;5021261;28;20477;-74
2022/10/07 12:40:59;;;;;;;10.87;2.60;;;18.90;94.70;;;;;;5013185;28;20448;-80
2022/10/07 12:43:54;;;;;;;6.57;2.73;;;18.90;94.70;;;;;;5024102;28;20487;-73
2022/10/07 12:46:25;;;;;;;6.57;2.20;;;18.80;94.40;;;;;;5029360;28;20448;-76
2022/10/07 12:49:00;;;;;;;8.30;1.93;;;18.90;94.40;;;;;;5009770;28;20477;-77
2022/10/07 12:51:38;;;;;;;8.37;2.53;;;18.80;94.60;;;;;;5012183;28;20443;-76
2022/10/07 12:54:07;;;;;;;10.83;2.63;;;18.60;94.60;;;;;;5014939;28;20961;-78
2022/10/07 12:56:34;;;;;;;7.63;2.70;;;18.60;95.20;;;;;;5021540;28;20550;-77
2022/10/07 13:02:40;;;;;;;6.87;2.30;;;19.00;94.80;;;;;;5016395;28;20504;-77
2022/10/07 13:05:51;;;;;;;8.23;2.47;;;19.20;94.70;;;;;;5012419;28;20449;-77
2022/10/07 13:08:55;;;;;;;8.63;2.77;;;19.20;94.10;;;;;;5011880;28;20468;-78
2022/10/07 13:12:10;;;;;;;10.10;2.87;;;19.10;94.20;;;;;;5021280;28;20929;-78
2022/10/07 13:14:48;;;;;;;7.03;2.70;;;19.00;94.00;;;;;;5022699;28;20455;-76
2022/10/07 13:17:35;;;;;;;12.07;3.17;;;18.80;94.50;;;;;;5011958;28;20913;-75
2022/10/07 13:20:24;;;;;;;7.87;2.50;;;18.70;94.60;;;;;;5003281;28;20997;-75
2022/10/07 13:22:51;;;;;;;9.20;3.00;;;18.70;94.70;;;;;;5010301;28;20826;-73